Time;durP1;ratioP1;P1;durP2;ratioP2;P2;SDS_P1;SDS_P2;PMS_P1;PMS_P2;Temp;Humidity;BMP_temperature;BMP_pressure;BME280_temperature;BME280_humidity;BME280_pressure;Samples;Min_cycle;Max_cycle;Signal;HPM_P1;HPM_P2
2021/08/22 00:02:01;;;;;;;8.73;4.70;;;;;;;;;;20817183;28;20084;-64
2021/08/22 00:12:04;;;;;;;15.95;7.93;;;;;;;;;;20816490;28;20141;-64
2021/08/22 00:22:07;;;;;;;6.97;4.57;;;;;;;;;;20816562;28;20072;-64
2021/08/22 00:32:13;;;;;;;13.25;6.55;;;;;;;;;;20816008;28;20053;-64
2021/08/22 00:42:17;;;;;;;8.32;4.65;;;;;;;;;;20823039;28;20421;-63
2021/08/22 00:52:19;;;;;;;8.05;4.03;;;;;;;;;;20828368;28;20045;-65
2021/08/22 01:02:27;;;;;;;8.25;4.18;;;;;;;;;;20827787;28;20041;-64
2021/08/22 01:12:34;;;;;;;10.43;4.53;;;;;;;;;;20895074;28;20053;-65
2021/08/22 01:22:41;;;;;;;7.35;4.32;;;;;;;;;;20829633;28;20468;-67
2021/08/22 01:32:46;;;;;;;7.28;4.50;;;;;;;;;;20894302;28;20084;-64
2021/08/22 01:43:05;;;;;;;10.27;5.38;;;;;;;;;;20825542;28;20075;-66
2021/08/22 01:53:25;;;;;;;7.65;5.03;;;;;;;;;;20823892;28;20098;-65
2021/08/22 02:03:47;;;;;;;8.05;4.40;;;;;;;;;;20823601;28;20045;-64
2021/08/22 02:13:49;;;;;;;6.63;4.55;;;;;;;;;;20823401;28;20065;-65
2021/08/22 02:24:00;;;;;;;7.53;4.10;;;;;;;;;;20823145;28;20049;-65
2021/08/22 02:34:22;;;;;;;7.67;3.63;;;;;;;;;;20822192;28;20114;-64
2021/08/22 02:44:38;;;;;;;4.97;3.92;;;;;;;;;;20821734;28;20049;-64
2021/08/22 02:54:54;;;;;;;6.28;3.67;;;;;;;;;;20821027;28;20497;-65
2021/08/22 03:05:14;;;;;;;5.10;3.97;;;;;;;;;;20829379;28;20102;-64
2021/08/22 03:15:26;;;;;;;;;;;;;;;;;;20820347;28;20065;-63
2021/08/22 03:25:39;;;;;;;6.90;4.00;;;;;;;;;;20819586;28;20281;-64
2021/08/22 03:35:50;;;;;;;8.23;3.92;;;;;;;;;;20818615;28;20406;-65
2021/08/22 03:46:01;;;;;;;4.60;3.53;;;;;;;;;;20802456;28;20084;-66
2021/08/22 03:56:08;;;;;;;5.97;3.22;;;;;;;;;;20817613;28;20115;-64
2021/08/22 04:06:16;;;;;;;6.53;3.55;;;;;;;;;;20816557;28;20098;-67
2021/08/22 04:16:22;;;;;;;6.15;4.00;;;;;;;;;;20822794;28;20579;-65
2021/08/22 04:26:33;;;;;;;5.32;4.03;;;;;;;;;;20829941;28;20057;-64
2021/08/22 04:36:44;;;;;;;6.53;3.42;;;;;;;;;;20813287;28;20053;-64
2021/08/22 04:46:51;;;;;;;5.72;3.60;;;;;;;;;;20829195;28;20485;-64
2021/08/22 04:57:02;;;;;;;5.55;4.18;;;;;;;;;;20828005;28;20053;-64
2021/08/22 05:07:05;;;;;;;11.30;6.55;;;;;;;;;;20827140;28;20128;-64
2021/08/22 05:17:11;;;;;;;6.78;4.28;;;;;;;;;;20827279;28;20513;-63
2021/08/22 05:27:14;;;;;;;7.82;4.00;;;;;;;;;;20825366;28;20049;-64
2021/08/22 05:37:16;;;;;;;7.47;4.47;;;;;;;;;;20809878;28;20386;-63
2021/08/22 05:47:23;;;;;;;6.97;3.97;;;;;;;;;;20825467;28;20140;-64
2021/08/22 05:57:26;;;;;;;6.93;4.10;;;;;;;;;;20824236;28;20054;-64
2021/08/22 06:07:28;;;;;;;8.40;3.97;;;;;;;;;;20805557;28;20053;-64
2021/08/22 06:17:33;;;;;;;5.93;3.72;;;;;;;;;;20823448;28;20054;-65
2021/08/22 06:27:37;;;;;;;8.85;3.83;;;;;;;;;;20822700;28;20049;-64
2021/08/22 06:37:40;;;;;;;6.13;4.00;;;;;;;;;;20822749;28;20045;-64
2021/08/22 06:47:46;;;;;;;10.93;4.53;;;;;;;;;;20822675;28;20566;-64
2021/08/22 06:57:52;;;;;;;5.30;3.60;;;;;;;;;;20803441;28;20052;-65
2021/08/22 07:07:55;;;;;;;8.57;3.95;;;;;;;;;;20833762;28;20077;-66
2021/08/22 07:17:58;;;;;;;7.75;3.70;;;;;;;;;;20843145;28;20448;-66
2021/08/22 07:28:01;;;;;;;7.13;4.00;;;;;;;;;;20819451;28;20078;-64
2021/08/22 07:38:04;;;;;;;7.60;4.10;;;;;;;;;;20818434;28;20056;-65
2021/08/22 07:48:06;;;;;;;6.40;3.58;;;;;;;;;;20820518;28;20060;-67
2021/08/22 07:58:09;;;;;;;7.32;3.65;;;;;;;;;;20832061;28;20082;-67
2021/08/22 08:08:12;;;;;;;6.97;4.10;;;;;;;;;;20831341;28;20148;-68
2021/08/22 08:18:16;;;;;;;7.95;3.72;;;;;;;;;;20831162;28;20049;-67
2021/08/22 08:28:22;;;;;;;5.95;3.80;;;;;;;;;;20829489;28;20041;-66
2021/08/22 08:38:25;;;;;;;7.57;3.58;;;;;;;;;;20829066;28;20049;-66
2021/08/22 08:48:28;;;;;;;6.18;4.40;;;;;;;;;;20828432;28;20136;-66
2021/08/22 08:58:30;;;;;;;5.70;3.53;;;;;;;;;;20829160;28;20052;-65
2021/08/22 09:08:59;;;;;;;6.68;3.75;;;;;;;;;;20811386;28;20054;-68
2021/08/22 09:19:20;;;;;;;8.55;4.03;;;;;;;;;;20826849;28;20106;-67
2021/08/22 09:29:40;;;;;;;9.53;4.10;;;;;;;;;;20826241;28;20049;-66
2021/08/22 09:40:02;;;;;;;8.05;4.05;;;;;;;;;;20825203;28;20053;-67
2021/08/22 09:50:08;;;;;;;9.30;3.55;;;;;;;;;;20824261;28;20481;-65
2021/08/22 10:00:31;;;;;;;8.50;4.30;;;;;;;;;;20823692;28;20105;-64
2021/08/22 10:10:36;;;;;;;5.32;3.80;;;;;;;;;;20822332;28;20148;-65
2021/08/22 10:20:43;;;;;;;7.07;5.10;;;;;;;;;;20822313;28;20128;-67
2021/08/22 10:30:47;;;;;;;9.25;5.82;;;;;;;;;;20821814;28;20053;-65
2021/08/22 10:40:52;;;;;;;8.88;4.18;;;;;;;;;;20821005;28;20478;-64
2021/08/22 10:50:59;;;;;;;8.00;3.67;;;;;;;;;;20820921;28;20132;-66
2021/08/22 11:01:18;;;;;;;6.97;3.90;;;;;;;;;;20820136;28;20072;-64
2021/08/22 11:11:21;;;;;;;8.38;4.15;;;;;;;;;;20822717;28;20061;-61
2021/08/22 11:21:29;;;;;;;6.53;3.95;;;;;;;;;;20859762;28;20045;-65
2021/08/22 11:31:32;;;;;;;6.28;4.07;;;;;;;;;;20899209;28;20076;-66
2021/08/22 11:41:38;;;;;;;7.50;3.38;;;;;;;;;;20883446;28;20135;-67
2021/08/22 11:51:41;;;;;;;5.50;3.40;;;;;;;;;;20900733;28;20052;-67
2021/08/22 12:01:46;;;;;;;6.88;3.20;;;;;;;;;;20899681;28;20109;-67
2021/08/22 12:11:49;;;;;;;6.20;3.33;;;;;;;;;;20898682;28;20109;-68
2021/08/22 12:21:54;;;;;;;5.53;3.30;;;;;;;;;;20898313;28;20101;-64
2021/08/22 12:32:06;;;;;;;4.10;3.38;;;;;;;;;;20880003;28;20059;-66
2021/08/22 12:42:17;;;;;;;6.45;3.10;;;;;;;;;;20911781;28;20109;-66
2021/08/22 12:52:21;;;;;;;5.57;3.33;;;;;;;;;;20911692;28;20500;-66
2021/08/22 13:02:25;;;;;;;5.70;3.10;;;;;;;;;;20911111;28;20045;-66
2021/08/22 13:12:28;;;;;;;7.32;3.80;;;;;;;;;;20910640;28;20060;-66
2021/08/22 13:22:30;;;;;;;6.45;3.70;;;;;;;;;;20892499;28;20102;-67
2021/08/22 13:32:33;;;;;;;5.55;3.28;;;;;;;;;;20909835;28;20065;-67
2021/08/22 13:42:36;;;;;;;8.45;3.25;;;;;;;;;;20908277;28;20056;-68
2021/08/22 13:52:40;;;;;;;6.15;3.92;;;;;;;;;;20909338;28;20055;-66
2021/08/22 14:02:43;;;;;;;5.93;3.20;;;;;;;;;;20908245;28;20056;-67
2021/08/22 14:12:45;;;;;;;7.80;3.40;;;;;;;;;;20906654;28;20057;-68
2021/08/22 14:22:49;;;;;;;9.93;3.67;;;;;;;;;;20906177;28;20073;-66
2021/08/22 14:32:52;;;;;;;5.40;4.13;;;;;;;;;;20905525;28;20130;-66
2021/08/22 14:42:55;;;;;;;8.65;3.33;;;;;;;;;;20905146;28;20045;-65
2021/08/22 14:52:57;;;;;;;8.27;3.60;;;;;;;;;;20904325;28;20077;-65
2021/08/22 15:02:59;;;;;;;8.30;3.63;;;;;;;;;;20903028;28;20101;-68
2021/08/22 15:13:01;;;;;;;8.15;3.95;;;;;;;;;;20903256;28;20060;-67
2021/08/22 15:23:05;;;;;;;5.18;3.40;;;;;;;;;;20902312;28;20057;-67
2021/08/22 15:33:07;;;;;;;6.20;3.50;;;;;;;;;;20902393;28;20049;-66
2021/08/22 15:43:09;;;;;;;8.25;3.60;;;;;;;;;;20901389;28;20477;-66
2021/08/22 15:53:11;;;;;;;7.55;3.30;;;;;;;;;;20882989;28;20052;-66
2021/08/22 16:03:14;;;;;;;8.65;3.97;;;;;;;;;;20899609;28;20045;-66
2021/08/22 16:13:16;;;;;;;10.25;4.30;;;;;;;;;;20907528;28;20060;-66
2021/08/22 16:23:18;;;;;;;7.13;3.05;;;;;;;;;;20913408;28;20060;-65
2021/08/22 16:33:20;;;;;;;11.15;3.90;;;;;;;;;;20913233;28;20053;-66
2021/08/22 16:43:22;;;;;;;13.60;4.10;;;;;;;;;;20894740;28;20140;-66
2021/08/22 16:53:24;;;;;;;11.60;4.70;;;;;;;;;;20912615;28;20056;-65
2021/08/22 17:03:27;;;;;;;11.65;4.57;;;;;;;;;;20911516;28;20489;-65
2021/08/22 17:13:29;;;;;;;9.98;3.80;;;;;;;;;;20909858;28;20080;-65
2021/08/22 17:23:33;;;;;;;10.30;3.45;;;;;;;;;;20908817;28;20049;-64
2021/08/22 17:33:35;;;;;;;7.82;3.70;;;;;;;;;;20909124;28;20061;-63
2021/08/22 17:43:37;;;;;;;12.95;3.88;;;;;;;;;;20908573;28;20049;-64
2021/08/22 17:53:40;;;;;;;15.18;4.40;;;;;;;;;;20907576;28;20060;-68
2021/08/22 18:03:43;;;;;;;11.13;4.05;;;;;;;;;;20906789;28;20099;-64
2021/08/22 18:13:46;;;;;;;10.52;3.97;;;;;;;;;;20905826;28;20511;-64
2021/08/22 18:23:48;;;;;;;8.23;3.42;;;;;;;;;;20905670;28;20080;-66
2021/08/22 18:33:50;;;;;;;16.15;4.72;;;;;;;;;;20904838;28;20057;-65
2021/08/22 18:43:52;;;;;;;13.68;4.88;;;;;;;;;;20904285;28;20052;-65
2021/08/22 18:53:54;;;;;;;11.70;4.13;;;;;;;;;;20903477;28;20053;-65
2021/08/22 19:03:56;;;;;;;14.52;5.20;;;;;;;;;;20903969;28;20056;-66
2021/08/22 19:13:58;;;;;;;15.48;6.32;;;;;;;;;;20902692;28;20064;-67
2021/08/22 19:24:00;;;;;;;14.40;5.18;;;;;;;;;;20902232;28;20052;-66
2021/08/22 19:34:06;;;;;;;18.05;6.60;;;;;;;;;;20902059;28;20045;-67
2021/08/22 19:44:09;;;;;;;13.18;5.53;;;;;;;;;;20883265;28;20045;-68
2021/08/22 19:54:12;;;;;;;12.55;5.70;;;;;;;;;;20902188;28;20059;-67
2021/08/22 20:04:14;;;;;;;19.52;7.97;;;;;;;;;;20883193;28;20045;-66
2021/08/22 20:14:17;;;;;;;20.20;7.07;;;;;;;;;;20881705;28;20061;-65
2021/08/22 20:24:19;;;;;;;15.30;6.13;;;;;;;;;;20899089;28;20056;-66
2021/08/22 20:34:21;;;;;;;16.55;6.63;;;;;;;;;;20899071;28;20063;-65
2021/08/22 20:44:24;;;;;;;16.23;6.22;;;;;;;;;;20898249;28;20049;-67
2021/08/22 20:54:26;;;;;;;14.70;6.65;;;;;;;;;;20898676;28;20071;-65
2021/08/22 21:04:28;;;;;;;21.98;9.57;;;;;;;;;;20911034;28;20045;-65
2021/08/22 21:14:31;;;;;;;16.65;7.75;;;;;;;;;;20910304;28;20507;-67
2021/08/22 21:24:33;;;;;;;12.27;5.78;;;;;;;;;;20909815;28;20456;-68
2021/08/22 21:34:35;;;;;;;14.55;5.53;;;;;;;;;;20892394;28;20089;-67
2021/08/22 21:44:42;;;;;;;22.35;17.25;;;;;;;;;;20909117;28;20045;-65
2021/08/22 21:54:44;;;;;;;12.95;6.45;;;;;;;;;;20908323;28;20084;-68
2021/08/22 22:04:46;;;;;;;11.70;6.85;;;;;;;;;;20907294;28;20049;-65
2021/08/22 22:14:48;;;;;;;18.23;7.05;;;;;;;;;;20906207;28;20574;-66
2021/08/22 22:24:50;;;;;;;14.23;5.35;;;;;;;;;;20906348;28;20128;-65
2021/08/22 22:34:52;;;;;;;17.13;6.40;;;;;;;;;;20888508;28;20049;-65
2021/08/22 22:44:54;;;;;;;9.18;3.78;;;;;;;;;;20905103;28;20049;-65
2021/08/22 22:54:57;;;;;;;15.07;3.65;;;;;;;;;;20905096;28;20048;-66
2021/08/22 23:05:00;;;;;;;14.02;4.22;;;;;;;;;;20888047;28;20084;-65
2021/08/22 23:15:02;;;;;;;14.80;6.22;;;;;;;;;;20903325;28;20442;-65
2021/08/22 23:25:05;;;;;;;15.63;6.05;;;;;;;;;;20884903;28;20053;-65
2021/08/22 23:35:07;;;;;;;14.48;5.15;;;;;;;;;;20902310;28;20545;-65
2021/08/22 23:45:10;;;;;;;15.82;5.30;;;;;;;;;;20901770;28;20497;-66
2021/08/22 23:55:12;;;;;;;13.38;5.32;;;;;;;;;;20902215;28;20049;-65
